Time;durP1;ratioP1;P1;durP2;ratioP2;P2;SDS_P1;SDS_P2;PMS_P1;PMS_P2;Temp;Humidity;BMP_temperature;BMP_pressure;BME280_temperature;BME280_humidity;BME280_pressure;Samples;Min_cycle;Max_cycle;Signal;HPM_P1;HPM_P2
2022/09/11 00:02:00;;;;;;;;;;;;;;;14.63;100.00;100383.41;5010800;28;1416;-85
2022/09/11 00:04:25;;;;;;;;;;;;;;;14.61;100.00;100380.16;4997015;28;1971;-85
2022/09/11 00:06:50;;;;;;;;;;;;;;;14.56;100.00;100374.72;4997053;28;1866;-84
2022/09/11 00:09:15;;;;;;;;;;;;;;;14.53;100.00;100378.94;4999205;28;1809;-84
2022/09/11 00:11:41;;;;;;;;;;;;;;;14.50;100.00;100379.56;5007148;28;1245;-84
2022/09/11 00:14:09;;;;;;;;;;;;;;;14.51;100.00;100375.69;5003188;28;1499;-84
2022/09/11 00:16:36;;;;;;;;;;;;;;;14.48;100.00;100380.97;4990084;28;1440;-84
2022/09/11 00:19:03;;;;;;;;;;;;;;;14.43;100.00;100376.41;4999315;28;1378;-85
2022/09/11 00:21:28;;;;;;;;;;;;;;;14.39;100.00;100375.38;5000467;28;1475;-85
2022/09/11 00:23:54;;;;;;;;;;;;;;;14.34;100.00;100364.47;4996968;28;1828;-85
2022/09/11 00:26:20;;;;;;;;;;;;;;;14.29;100.00;100364.59;4994235;28;1965;-84
2022/09/11 00:28:45;;;;;;;;;;;;;;;14.26;100.00;100367.94;4996224;28;1063;-84
2022/09/11 00:31:12;;;;;;;;;;;;;;;14.26;100.00;100365.19;4996792;28;1667;-85
2022/09/11 00:33:37;;;;;;;;;;;;;;;14.25;100.00;100374.56;4997289;28;1257;-84
2022/09/11 00:36:07;;;;;;;;;;;;;;;14.27;100.00;100372.31;4995256;28;1579;-85
2022/09/11 00:38:34;;;;;;;;;;;;;;;14.29;100.00;100381.09;4996472;28;1448;-85
2022/09/11 00:41:01;;;;;;;;;;;;;;;14.31;100.00;100381.59;4995194;28;1325;-85
2022/09/11 00:43:27;;;;;;;;;;;;;;;14.31;100.00;100381.59;4982056;28;1453;-85
2022/09/11 00:45:58;;;;;;;;;;;;;;;14.24;100.00;100389.44;4990711;28;1902;-84
2022/09/11 00:48:25;;;;;;;;;;;;;;;14.15;100.00;100388.53;4997574;28;1519;-84
2022/09/11 00:50:52;;;;;;;;;;;;;;;14.12;100.00;100392.72;4998182;28;1579;-85
2022/09/11 00:53:19;;;;;;;;;;;;;;;14.10;100.00;100407.91;4997430;28;1447;-83
2022/09/11 00:55:47;;;;;;;;;;;;;;;14.08;100.00;100399.16;4995821;28;1294;-83
2022/09/11 00:58:15;;;;;;;;;;;;;;;14.10;100.00;100399.66;4988377;28;1429;-84
2022/09/11 01:00:41;;;;;;;;;;;;;;;14.08;100.00;100401.91;4993190;28;1428;-84
2022/09/11 01:03:07;;;;;;;;;;;;;;;14.04;100.00;100401.69;4986124;28;1477;-84
2022/09/11 01:05:34;;;;;;;;;;;;;;;13.96;100.00;100397.72;4983682;28;1910;-85
2022/09/11 01:08:01;;;;;;;;;;;;;;;13.88;100.00;100390.16;4988210;28;1652;-83
2022/09/11 01:10:47;;;;;;;;;;;;;;;13.89;100.00;100400.06;4994319;28;1337;-84
2022/09/11 01:13:21;;;;;;;;;;;;;;;13.88;100.00;100403.09;4991178;28;1981;-83
2022/09/11 01:16:01;;;;;;;;;;;;;;;13.78;100.00;100398.59;4995313;28;1527;-83
2022/09/11 01:18:30;;;;;;;;;;;;;;;13.72;100.00;100402.59;4999427;28;1215;-84
2022/09/11 01:21:03;;;;;;;;;;;;;;;13.73;100.00;100404.22;5013121;28;1741;-84
2022/09/11 01:23:37;;;;;;;;;;;;;;;13.72;100.00;100402.59;4993335;28;1524;-84
2022/09/11 01:26:22;;;;;;;;;;;;;;;13.73;100.00;100412.47;4997531;28;1874;-85
2022/09/11 01:28:51;;;;;;;;;;;;;;;13.72;100.00;100413.59;4996605;28;1368;-83
2022/09/11 01:31:19;;;;;;;;;;;;;;;13.74;100.00;100416.03;4999289;28;1187;-84
2022/09/11 01:33:54;;;;;;;;;;;;;;;13.74;100.00;100413.28;4997476;28;1484;-84
2022/09/11 01:36:35;;;;;;;;;;;;;;;13.77;100.00;100415.44;4997003;28;1425;-84
2022/09/11 01:39:01;;;;;;;;;;;;;;;13.78;100.00;100403.31;4998954;28;1486;-84
2022/09/11 01:41:46;;;;;;;;;;;;;;;13.79;100.00;100414.00;4995112;28;1416;-83
2022/09/11 01:44:16;;;;;;;;;;;;;;;13.80;100.00;100414.81;4991451;28;1911;-84
2022/09/11 01:46:44;;;;;;;;;;;;;;;13.84;100.00;100416.69;4998941;28;1349;-84
2022/09/11 01:49:14;;;;;;;;;;;;;;;13.85;100.00;100418.31;4999761;28;1718;-84
2022/09/11 01:51:39;;;;;;;;;;;;;;;13.89;100.00;100418.50;4997884;28;1460;-84
2022/09/11 01:54:08;;;;;;;;;;;;;;;13.91;100.00;100419.03;4990003;28;1766;-84
2022/09/11 01:56:35;;;;;;;;;;;;;;;13.91;100.00;100416.28;4998230;28;1440;-84
2022/09/11 01:59:04;;;;;;;;;;;;;;;13.89;100.00;100419.31;4999671;28;1766;-84
2022/09/11 02:01:31;;;;;;;;;;;;;;;13.87;100.00;100424.31;5000069;28;1372;-83
2022/09/11 02:04:03;;;;;;;;;;;;;;;13.88;100.00;100428.69;4998164;28;1820;-82
2022/09/11 02:06:30;;;;;;;;;;;;;;;13.92;100.00;100435.22;4999985;28;1369;-83
2022/09/11 02:08:57;;;;;;;;;;;;;;;13.94;100.00;100433.00;4998882;28;976;-83
2022/09/11 02:11:23;;;;;;;;;;;;;;;13.96;100.00;100441.75;5000078;28;1408;-83
2022/09/11 02:13:48;;;;;;;;;;;;;;;13.96;100.00;100433.47;4996182;28;1383;-84
2022/09/11 02:16:16;;;;;;;;;;;;;;;13.96;100.00;100441.75;4996526;28;1623;-84
2022/09/11 02:18:45;;;;;;;;;;;;;;;13.96;100.00;100438.16;4985481;28;1417;-84
2022/09/11 02:21:11;;;;;;;;;;;;;;;13.93;100.00;100433.28;4987121;28;1861;-83
2022/09/11 02:23:36;;;;;;;;;;;;;;;13.95;100.00;100442.84;4990375;28;1790;-83
2022/09/11 02:26:02;;;;;;;;;;;;;;;13.97;100.00;100454.38;4993710;28;1949;-82
2022/09/11 02:28:28;;;;;;;;;;;;;;;13.97;100.00;100451.63;4991870;28;1475;-83
2022/09/11 02:30:53;;;;;;;;;;;;;;;14.01;100.00;100457.34;4998213;28;1288;-84
2022/09/11 02:33:28;;;;;;;;;;;;;;;13.99;100.00;100457.66;5013119;28;1424;-83
2022/09/11 02:35:58;;;;;;;;;;;;;;;13.99;100.00;100454.91;4996672;28;1483;-83
2022/09/11 02:38:28;;;;;;;;;;;;;;;14.01;100.00;100460.09;4997003;28;1710;-83
2022/09/11 02:41:03;;;;;;;;;;;;;;;14.05;100.00;100463.06;4992984;28;1492;-84
2022/09/11 02:43:37;;;;;;;;;;;;;;;14.05;100.00;100465.81;4996457;28;1738;-83
2022/09/11 02:46:02;;;;;;;;;;;;;;;14.03;100.00;100466.91;4995923;28;1975;-83
2022/09/11 02:48:53;;;;;;;;;;;;;;;14.05;100.00;100463.88;4998085;28;1608;-83
2022/09/11 02:51:31;;;;;;;;;;;;;;;14.05;100.00;100471.31;4991438;28;1358;-83
2022/09/11 02:53:56;;;;;;;;;;;;;;;14.03;100.00;100464.16;5005477;28;1267;-84
2022/09/11 02:56:41;;;;;;;;;;;;;;;14.05;100.00;100471.31;4988994;28;1448;-84
2022/09/11 02:59:09;;;;;;;;;;;;;;;14.04;100.00;100476.00;4997741;28;1717;-83
2022/09/11 03:02:04;;;;;;;;;;;;;;;14.07;100.00;100472.63;5001089;28;1307;-84
2022/09/11 03:04:30;;;;;;;;;;;;;;;14.09;100.00;100466.84;4994852;28;1894;-84
2022/09/11 03:06:57;;;;;;;;;;;;;;;14.11;100.00;100478.38;4996372;28;1404;-82
2022/09/11 03:09:22;;;;;;;;;;;;;;;14.10;100.00;100477.56;4991125;28;1518;-84
2022/09/11 03:11:47;;;;;;;;;;;;;;;14.12;100.00;100480.78;4993404;28;1330;-83
2022/09/11 03:14:13;;;;;;;;;;;;;;;14.11;100.00;100479.19;4989331;28;2025;-84
2022/09/11 03:16:39;;;;;;;;;;;;;;;14.14;100.00;100488.75;4987018;28;1381;-84
2022/09/11 03:19:04;;;;;;;;;;;;;;;14.14;100.00;100491.50;4996747;28;1663;-83
2022/09/11 03:21:30;;;;;;;;;;;;;;;14.15;100.00;100501.41;4995889;28;1446;-84
2022/09/11 03:23:56;;;;;;;;;;;;;;;14.14;100.00;100499.75;4996224;28;1848;-83
2022/09/11 03:26:21;;;;;;;;;;;;;;;14.13;100.00;100498.94;4990115;28;1902;-83
2022/09/11 03:28:46;;;;;;;;;;;;;;;14.14;100.00;100502.50;4998284;28;1396;-83
2022/09/11 03:31:12;;;;;;;;;;;;;;;14.13;100.00;100500.88;4996161;28;1388;-83
2022/09/11 03:33:38;;;;;;;;;;;;;;;14.11;100.00;100495.69;4985230;28;1664;-83
2022/09/11 03:36:03;;;;;;;;;;;;;;;14.13;100.00;100500.88;4995662;28;1842;-83
2022/09/11 03:38:28;;;;;;;;;;;;;;;14.12;100.00;100508.31;4987853;28;1404;-84
2022/09/11 03:40:53;;;;;;;;;;;;;;;14.13;100.00;100503.63;4979192;28;1397;-83
2022/09/11 03:43:19;;;;;;;;;;;;;;;14.12;100.00;100505.56;4993321;28;1829;-83
2022/09/11 03:45:48;;;;;;;;;;;;;;;14.13;100.00;100509.94;4995440;28;1898;-83
2022/09/11 03:48:13;;;;;;;;;;;;;;;14.13;100.00;100504.44;4997065;28;1262;-83
2022/09/11 03:50:38;;;;;;;;;;;;;;;14.13;100.00;100500.88;4995832;28;1805;-83
2022/09/11 03:53:04;;;;;;;;;;;;;;;14.14;100.00;100503.34;4992029;28;1615;-84
2022/09/11 03:55:30;;;;;;;;;;;;;;;14.14;100.00;100502.50;4988973;28;1337;-83
2022/09/11 03:57:57;;;;;;;;;;;;;;;14.13;100.00;100493.44;4993081;28;1270;-83
2022/09/11 04:00:22;;;;;;;;;;;;;;;14.12;100.00;100499.28;4991400;28;1493;-83
2022/09/11 04:02:47;;;;;;;;;;;;;;;14.12;100.00;100504.78;4995468;28;1421;-83
2022/09/11 04:05:12;;;;;;;;;;;;;;;14.09;100.00;100502.63;4991111;28;2115;-83
2022/09/11 04:07:37;;;;;;;;;;;;;;;14.07;100.00;100511.19;4985914;28;1213;-83
2022/09/11 04:10:03;;;;;;;;;;;;;;;14.00;100.00;100510.75;4990394;28;1296;-82
2022/09/11 04:12:28;;;;;;;;;;;;;;;14.01;100.00;100515.97;4997065;28;1366;-87
2022/09/11 04:14:53;;;;;;;;;;;;;;;13.99;100.00;100504.44;4992750;28;1475;-83
2022/09/11 04:17:18;;;;;;;;;;;;;;;13.99;100.00;100512.69;4995282;28;2034;-83
2022/09/11 04:19:43;;;;;;;;;;;;;;;13.97;100.00;100517.69;4999706;28;1372;-84
2022/09/11 04:22:08;;;;;;;;;;;;;;;14.00;100.00;100522.59;4991995;28;1476;-83
2022/09/11 04:24:34;;;;;;;;;;;;;;;14.02;100.00;100522.28;4994265;28;1945;-83
2022/09/11 04:26:59;;;;;;;;;;;;;;;14.00;100.00;100511.56;4995293;28;1361;-83
2022/09/11 04:29:25;;;;;;;;;;;;;;;14.00;100.00;100519.84;4995102;28;1416;-83
2022/09/11 04:31:50;;;;;;;;;;;;;;;14.01;100.00;100515.16;4995110;28;1417;-84
2022/09/11 04:34:15;;;;;;;;;;;;;;;14.06;100.00;100528.00;4995806;28;1299;-84
2022/09/11 04:36:40;;;;;;;;;;;;;;;14.07;100.00;100524.94;4986130;28;1318;-84
2022/09/11 04:39:05;;;;;;;;;;;;;;;14.10;100.00;100526.28;4983548;28;1879;-84
2022/09/11 04:41:31;;;;;;;;;;;;;;;14.11;100.00;100530.66;4988866;28;1731;-84
2022/09/11 04:43:57;;;;;;;;;;;;;;;14.10;100.00;100532.59;4990896;28;1746;-84
2022/09/11 04:46:23;;;;;;;;;;;;;;;14.11;100.00;100530.66;4990761;28;1950;-84
2022/09/11 04:48:52;;;;;;;;;;;;;;;14.12;100.00;100524.03;4993725;28;1730;-84
2022/09/11 04:51:25;;;;;;;;;;;;;;;14.12;100.00;100530.34;4991166;28;1502;-84
2022/09/11 04:53:51;;;;;;;;;;;;;;;14.12;100.00;100532.31;4979846;28;1588;-83
2022/09/11 04:56:17;;;;;;;;;;;;;;;14.13;100.00;100536.66;4994443;28;1607;-84
2022/09/11 04:58:42;;;;;;;;;;;;;;;14.13;100.00;100534.72;4993437;28;1457;-84
2022/09/11 05:01:08;;;;;;;;;;;;;;;14.15;100.00;100539.94;4992220;28;1754;-84
2022/09/11 05:03:33;;;;;;;;;;;;;;;14.15;100.00;100537.19;4985506;28;1345;-84
2022/09/11 05:06:03;;;;;;;;;;;;;;;14.15;100.00;100543.50;4990008;28;1882;-84
2022/09/11 05:08:28;;;;;;;;;;;;;;;14.14;100.00;100541.88;4997349;28;1364;-83
2022/09/11 05:10:54;;;;;;;;;;;;;;;14.15;100.00;100545.44;4995394;28;1646;-86
2022/09/11 05:13:19;;;;;;;;;;;;;;;14.14;100.00;100544.63;4984583;28;1636;-84
2022/09/11 05:15:44;;;;;;;;;;;;;;;14.15;100.00;100548.19;4997653;28;1381;-83
2022/09/11 05:18:09;;;;;;;;;;;;;;;14.16;100.00;100561.66;4996855;28;1436;-83
2022/09/11 05:20:34;;;;;;;;;;;;;;;14.18;100.00;100556.69;4997910;28;1611;-84
2022/09/11 05:23:00;;;;;;;;;;;;;;;14.18;100.00;100559.44;4996315;28;1603;-84
2022/09/11 05:25:25;;;;;;;;;;;;;;;14.19;100.00;100565.75;4996799;28;1899;-83
2022/09/11 05:27:50;;;;;;;;;;;;;;;14.18;100.00;100569.63;4996174;28;1019;-84
2022/09/11 05:30:15;;;;;;;;;;;;;;;14.17;100.00;100574.31;4993238;28;1495;-84
2022/09/11 05:32:40;;;;;;;;;;;;;;;14.17;100.00;100581.75;4995472;28;1475;-84
2022/09/11 05:35:06;;;;;;;;;;;;;;;14.16;100.00;100580.94;4997270;28;1973;-83
2022/09/11 05:37:31;;;;;;;;;;;;;;;14.17;100.00;100584.50;4996348;28;1204;-84
2022/09/11 05:39:57;;;;;;;;;;;;;;;14.18;100.00;100597.97;4993369;28;1401;-84
2022/09/11 05:42:22;;;;;;;;;;;;;;;14.18;100.00;100592.47;4996334;28;1603;-84
2022/09/11 05:44:47;;;;;;;;;;;;;;;14.18;100.00;100589.72;4995992;28;1894;-85
2022/09/11 05:47:15;;;;;;;;;;;;;;;14.19;100.00;100601.53;4999450;28;1097;-84
2022/09/11 05:49:41;;;;;;;;;;;;;;;14.21;100.00;100599.28;4998901;28;1308;-83
2022/09/11 05:52:06;;;;;;;;;;;;;;;14.23;100.00;100602.56;4997291;28;1413;-84
2022/09/11 05:54:31;;;;;;;;;;;;;;;14.23;100.00;100611.63;4993033;28;1546;-83
2022/09/11 05:56:56;;;;;;;;;;;;;;;14.24;100.00;100620.72;4998901;28;1353;-83
2022/09/11 05:59:22;;;;;;;;;;;;;;;14.25;100.00;100622.34;5013331;28;1427;-84
2022/09/11 06:01:47;;;;;;;;;;;;;;;14.27;100.00;100622.88;4997264;28;1596;-83
2022/09/11 06:04:12;;;;;;;;;;;;;;;14.30;100.00;100627.75;4996891;28;1247;-84
2022/09/11 06:06:38;;;;;;;;;;;;;;;14.30;100.00;100628.56;4997182;28;2937;-84
2022/09/11 06:09:04;;;;;;;;;;;;;;;14.28;100.00;100627.25;4997520;28;1369;-83
2022/09/11 06:11:29;;;;;;;;;;;;;;;14.30;100.00;100622.25;4997040;28;1569;-83
2022/09/11 06:13:55;;;;;;;;;;;;;;;14.32;100.00;100626.34;4987129;28;1448;-84
2022/09/11 06:16:21;;;;;;;;;;;;;;;14.35;100.00;100628.50;4998637;28;1289;-83
2022/09/11 06:18:49;;;;;;;;;;;;;;;14.36;100.00;100619.13;4995982;28;1478;-83
2022/09/11 06:21:18;;;;;;;;;;;;;;;14.39;100.00;100618.53;4994850;28;1376;-83
2022/09/11 06:23:43;;;;;;;;;;;;;;;14.41;100.00;100620.16;4997031;28;1373;-83
2022/09/11 06:26:13;;;;;;;;;;;;;;;14.42;100.00;100630.88;4993498;28;1945;-83
2022/09/11 06:28:38;;;;;;;;;;;;;;;14.43;100.00;100628.94;4991834;28;1503;-83
2022/09/11 06:31:05;;;;;;;;;;;;;;;14.43;100.00;100624.25;4992970;28;1599;-83
2022/09/11 06:33:32;;;;;;;;;;;;;;;14.43;100.00;100631.72;4989720;28;1644;-84
2022/09/11 06:35:58;;;;;;;;;;;;;;;14.43;100.00;100632.53;4997360;28;1320;-84
2022/09/11 06:38:24;;;;;;;;;;;;;;;14.45;100.00;100633.03;4997764;28;1352;-84
2022/09/11 06:40:50;;;;;;;;;;;;;;;14.48;100.00;100628.84;4991714;28;1404;-84
2022/09/11 06:43:15;;;;;;;;;;;;;;;14.52;100.00;100636.22;4993915;28;1417;-84
2022/09/11 06:45:40;;;;;;;;;;;;;;;14.56;100.00;100637.22;4993710;28;1943;-84
2022/09/11 06:48:06;;;;;;;;;;;;;;;14.61;100.00;100637.16;4994289;28;1074;-84
2022/09/11 06:50:39;;;;;;;;;;;;;;;14.65;100.00;100649.19;4995123;28;1294;-83
2022/09/11 06:53:04;;;;;;;;;;;;;;;14.71;100.00;100641.66;4994007;28;1549;-84
2022/09/11 06:55:29;;;;;;;;;;;;;;;14.77;100.00;100641.25;4995575;28;1345;-84
2022/09/11 06:57:54;;;;;;;;;;;;;;;14.77;100.00;100640.44;4996254;28;1176;-83
2022/09/11 07:00:19;;;;;;;;;;;;;;;14.75;100.00;100643.47;4993670;28;1404;-83
2022/09/11 07:02:45;;;;;;;;;;;;;;;14.73;100.00;100637.44;4994855;28;1612;-84
2022/09/11 07:05:10;;;;;;;;;;;;;;;14.74;100.00;100633.59;4997696;28;1910;-83
2022/09/11 07:07:35;;;;;;;;;;;;;;;14.74;100.00;100639.09;5000074;28;1316;-86
2022/09/11 07:10:03;;;;;;;;;;;;;;;14.76;100.00;100636.84;4999124;28;1222;-85
2022/09/11 07:12:28;;;;;;;;;;;;;;;14.81;100.00;100635.94;4993226;28;1375;-86
2022/09/11 07:14:53;;;;;;;;;;;;;;;14.81;100.00;100635.09;4991053;28;1787;-85
2022/09/11 07:17:18;;;;;;;;;;;;;;;14.79;100.00;100637.38;4983046;28;1370;-85
2022/09/11 07:19:43;;;;;;;;;;;;;;;14.76;100.00;100636.03;4992579;28;1492;-84
2022/09/11 07:22:09;;;;;;;;;;;;;;;14.74;100.00;100644.59;4993106;28;1115;-84
2022/09/11 07:24:34;;;;;;;;;;;;;;;14.75;100.00;100637.97;5012242;28;1960;-84
2022/09/11 07:26:59;;;;;;;;;;;;;;;14.73;100.00;100642.97;4995372;28;1258;-84
2022/09/11 07:29:24;;;;;;;;;;;;;;;14.76;100.00;100644.31;4994581;28;1400;-84
2022/09/11 07:31:50;;;;;;;;;;;;;;;14.76;100.00;100647.06;4995802;28;1339;-84
2022/09/11 07:34:15;;;;;;;;;;;;;;;14.80;100.00;100650.81;4995033;28;1825;-88
2022/09/11 07:36:40;;;;;;;;;;;;;;;14.83;100.00;100658.50;4995917;28;1232;-87
2022/09/11 07:39:05;;;;;;;;;;;;;;;14.85;100.00;100653.50;4996962;28;1214;-85
2022/09/11 07:41:30;;;;;;;;;;;;;;;14.88;100.00;100665.88;4996034;28;1292;-86
2022/09/11 07:43:57;;;;;;;;;;;;;;;14.89;100.00;100660.03;4992767;28;1472;-86
2022/09/11 07:46:23;;;;;;;;;;;;;;;14.90;100.00;100669.09;4996638;28;1894;-86
2022/09/11 07:48:48;;;;;;;;;;;;;;;14.85;100.00;100674.72;4995228;28;1539;-86
2022/09/11 07:51:14;;;;;;;;;;;;;;;14.84;100.00;100675.84;4992368;28;1354;-86
2022/09/11 07:53:45;;;;;;;;;;;;;;;14.83;100.00;100674.22;4993857;28;1323;-86
2022/09/11 07:56:11;;;;;;;;;;;;;;;14.86;100.00;100668.09;4994689;28;1615;-86
2022/09/11 07:58:38;;;;;;;;;;;;;;;14.92;100.00;100672.38;4994205;28;1498;-87
2022/09/11 08:01:04;;;;;;;;;;;;;;;14.95;100.00;100678.13;4984455;28;1555;-86
2022/09/11 08:03:30;;;;;;;;;;;;;;;14.98;100.00;100676.66;4993289;28;1322;-86
2022/09/11 08:05:58;;;;;;;;;;;;;;;14.99;100.00;100683.81;4996537;28;1910;-86
2022/09/11 08:08:24;;;;;;;;;;;;;;;15.00;100.00;100679.94;4996014;28;1234;-86
2022/09/11 08:10:49;;;;;;;;;;;;;;;15.03;100.00;100687.59;4989423;28;1443;-85
2022/09/11 08:13:15;;;;;;;;;;;;;;;15.01;100.00;100679.63;4997899;28;1503;-86
2022/09/11 08:15:47;;;;;;;;;;;;;;;15.06;100.00;100689.72;4999073;28;1407;-86
2022/09/11 08:18:12;;;;;;;;;;;;;;;15.07;100.00;100688.63;4995429;28;1718;-85
2022/09/11 08:20:37;;;;;;;;;;;;;;;15.11;100.00;100695.16;4996333;28;1609;-83
2022/09/11 08:23:02;;;;;;;;;;;;;;;15.17;100.00;100695.88;4997512;28;1349;-84
2022/09/11 08:25:28;;;;;;;;;;;;;;;15.22;100.00;100702.13;4999612;28;1902;-83
2022/09/11 08:27:53;;;;;;;;;;;;;;;15.23;100.00;100705.66;4998180;28;1318;-85
2022/09/11 08:30:18;;;;;;;;;;;;;;;15.14;100.00;100702.84;4998887;28;1401;-85
2022/09/11 08:32:43;;;;;;;;;;;;;;;15.10;100.00;100702.63;4999228;28;1006;-85
2022/09/11 08:35:08;;;;;;;;;;;;;;;15.12;100.00;100716.94;4998635;28;1679;-85
2022/09/11 08:37:34;;;;;;;;;;;;;;;15.14;100.00;100725.69;4999155;28;1199;-85
2022/09/11 08:40:00;;;;;;;;;;;;;;;15.14;100.00;100730.41;5002828;28;1281;-86
2022/09/11 08:42:26;;;;;;;;;;;;;;;15.14;100.00;100727.66;4997606;28;1388;-84
2022/09/11 08:44:54;;;;;;;;;;;;;;;15.15;100.00;100726.50;5017439;28;1976;-85
2022/09/11 08:47:21;;;;;;;;;;;;;;;15.17;100.00;100734.47;5002118;28;1400;-85
2022/09/11 08:49:58;;;;;;;;;;;;;;;15.14;100.00;100731.19;4987623;28;1320;-86
2022/09/11 08:52:23;;;;;;;;;;;;;;;15.16;100.00;100728.16;4996721;28;1369;-86
2022/09/11 08:54:49;;;;;;;;;;;;;;;15.21;100.00;100724.50;4982903;28;1607;-85
2022/09/11 08:57:32;;;;;;;;;;;;;;;15.24;100.00;100729.38;4988470;28;1236;-85
2022/09/11 08:59:57;;;;;;;;;;;;;;;15.19;100.00;100738.56;4996172;28;1786;-83
2022/09/11 09:02:22;;;;;;;;;;;;;;;15.19;100.00;100738.56;4999497;28;1314;-83
2022/09/11 09:04:50;;;;;;;;;;;;;;;15.20;100.00;100747.66;5002693;28;1894;-85
2022/09/11 09:07:27;;;;;;;;;;;;;;;15.20;100.00;100753.19;5012644;28;1436;-85
2022/09/11 09:10:06;;;;;;;;;;;;;;;15.18;100.00;100749.91;5010493;28;1537;-83
2022/09/11 09:12:40;;;;;;;;;;;;;;;15.12;100.00;100754.72;4994271;28;1433;-83
2022/09/11 09:15:23;;;;;;;;;;;;;;;15.12;100.00;100754.72;5003383;28;1694;-85
2022/09/11 09:17:52;;;;;;;;;;;;;;;15.06;100.00;100758.66;5002568;28;1445;-85
2022/09/11 09:20:26;;;;;;;;;;;;;;;15.14;100.00;100763.50;5002829;28;1357;-85
2022/09/11 09:23:03;;;;;;;;;;;;;;;15.23;100.00;100767.16;5010182;28;1756;-83
2022/09/11 09:25:32;;;;;;;;;;;;;;;15.38;100.00;100763.31;5002558;28;1902;-83
2022/09/11 09:28:01;;;;;;;;;;;;;;;15.42;100.00;100769.84;5002983;28;1512;-83
2022/09/11 09:30:28;;;;;;;;;;;;;;;15.46;100.00;100766.16;5001393;28;1460;-83
2022/09/11 09:32:59;;;;;;;;;;;;;;;15.46;100.00;100766.16;4991830;28;899;-83
2022/09/11 09:35:31;;;;;;;;;;;;;;;15.39;100.00;100779.56;5002228;28;1583;-83
2022/09/11 09:37:56;;;;;;;;;;;;;;;15.24;100.00;100777.06;5000295;28;1445;-83
2022/09/11 09:40:24;;;;;;;;;;;;;;;15.25;100.00;100783.41;5000981;28;1541;-86
2022/09/11 09:42:58;;;;;;;;;;;;;;;15.21;100.00;100777.69;4980497;28;1233;-87
2022/09/11 09:45:40;;;;;;;;;;;;;;;15.17;100.00;100782.16;5012558;28;1961;-86
2022/09/11 09:48:08;;;;;;;;;;;;;;;15.04;100.00;100792.06;5004124;28;1542;-87
2022/09/11 09:50:34;;;;;;;;;;;;;;;15.12;100.00;100796.06;4975734;28;1250;-88
2022/09/11 09:53:09;;;;;;;;;;;;;;;15.13;100.00;100800.47;4977678;28;973;-88
2022/09/11 09:55:37;;;;;;;;;;;;;;;15.14;100.00;100788.31;4987335;28;1708;-88
2022/09/11 09:58:02;;;;;;;;;;;;;;;15.09;100.00;100794.72;4997454;28;926;-85
2022/09/11 10:00:31;;;;;;;;;;;;;;;15.07;100.00;100796.97;4997263;28;1217;-88
2022/09/11 10:02:57;;;;;;;;;;;;;;;15.08;100.00;100801.34;4997430;28;866;-88
2022/09/11 10:05:41;;;;;;;;;;;;;;;15.09;100.00;100799.41;4997325;28;1975;-88
2022/09/11 10:08:26;;;;;;;;;;;;;;;15.07;100.00;100801.66;4997693;28;901;-86
2022/09/11 10:10:56;;;;;;;;;;;;;;;15.08;100.00;100806.88;4997151;28;1406;-86
2022/09/11 10:13:24;;;;;;;;;;;;;;;15.07;100.00;100799.72;4992768;28;1502;-87
2022/09/11 10:15:50;;;;;;;;;;;;;;;15.18;99.69;100800.34;4997550;28;1203;-87
2022/09/11 10:18:22;;;;;;;;;;;;;;;15.31;100.00;100805.06;4995572;28;1511;-87
2022/09/11 10:20:48;;;;;;;;;;;;;;;15.43;99.69;100796.28;4994222;28;1419;-86
2022/09/11 10:23:24;;;;;;;;;;;;;;;15.43;99.74;100799.88;4990980;28;1053;-87
2022/09/11 10:25:50;;;;;;;;;;;;;;;15.45;99.15;100799.56;4990804;28;1957;-87
2022/09/11 10:28:18;;;;;;;;;;;;;;;15.50;99.60;100814.06;5013408;28;1101;-87
2022/09/11 10:30:57;;;;;;;;;;;;;;;15.52;99.23;100806.31;4996197;28;1296;-88
2022/09/11 10:33:26;;;;;;;;;;;;;;;15.46;98.03;100796.50;4997584;28;940;-88
2022/09/11 10:35:54;;;;;;;;;;;;;;;15.48;97.59;100808.03;4995605;28;1287;-86
2022/09/11 10:38:20;;;;;;;;;;;;;;;15.56;97.66;100805.75;4995655;28;1286;-85
2022/09/11 10:40:53;;;;;;;;;;;;;;;15.64;96.95;100805.84;4994924;28;1543;-87
2022/09/11 10:43:23;;;;;;;;;;;;;;;15.72;96.98;100802.38;4995310;28;1405;-86
2022/09/11 10:46:02;;;;;;;;;;;;;;;15.78;97.51;100798.38;4996318;28;1972;-87
2022/09/11 10:48:27;;;;;;;;;;;;;;;15.79;95.96;100801.94;4996254;28;944;-87
2022/09/11 10:51:06;;;;;;;;;;;;;;;15.88;95.71;100798.16;5011166;28;1269;-87
2022/09/11 10:53:36;;;;;;;;;;;;;;;15.98;94.92;100801.84;4996113;28;906;-87
2022/09/11 10:56:02;;;;;;;;;;;;;;;16.10;93.52;100800.16;4996052;28;823;-87
2022/09/11 10:58:31;;;;;;;;;;;;;;;16.27;94.14;100800.31;4995659;28;909;-86
2022/09/11 11:00:57;;;;;;;;;;;;;;;16.31;92.28;100802.47;4994962;28;1216;-87
2022/09/11 11:03:26;;;;;;;;;;;;;;;16.43;90.91;100800.78;4993661;28;1209;-88
2022/09/11 11:06:10;;;;;;;;;;;;;;;16.46;90.43;100794.66;5010509;28;1959;-89
2022/09/11 11:09:03;;;;;;;;;;;;;;;16.62;90.56;100801.47;4995326;28;1005;-87
2022/09/11 11:11:39;;;;;;;;;;;;;;;16.52;89.85;100801.69;4995543;28;1233;-87
2022/09/11 11:14:22;;;;;;;;;;;;;;;16.42;88.82;100801.91;4995220;28;826;-88
2022/09/11 11:17:01;;;;;;;;;;;;;;;16.45;89.36;100809.59;4995137;28;1009;-87
2022/09/11 11:19:30;;;;;;;;;;;;;;;16.43;89.04;100811.84;4995265;28;828;-85
2022/09/11 11:21:55;;;;;;;;;;;;;;;16.51;90.79;100807.50;4995222;28;1077;-85
2022/09/11 11:24:46;;;;;;;;;;;;;;;16.50;89.52;100805.91;4995175;28;1116;-87
2022/09/11 11:27:30;;;;;;;;;;;;;;;16.52;89.27;100809.16;4995525;28;1114;-87
2022/09/11 11:30:07;;;;;;;;;;;;;;;16.58;89.59;100816.22;4993714;28;1249;-87
2022/09/11 11:32:32;;;;;;;;;;;;;;;16.54;89.70;100812.41;4994990;28;997;-85
2022/09/11 11:35:08;;;;;;;;;;;;;;;16.51;88.42;100811.09;4995034;28;863;-87
2022/09/11 11:37:37;;;;;;;;;;;;;;;16.44;88.93;100823.72;4993828;28;1371;-87
2022/09/11 11:40:16;;;;;;;;;;;;;;;16.42;88.90;100825.97;4994640;28;1217;-87
2022/09/11 11:42:43;;;;;;;;;;;;;;;16.45;90.33;100822.59;4994781;28;918;-87
2022/09/11 11:45:17;;;;;;;;;;;;;;;16.45;88.83;100828.94;4994946;28;1902;-86
2022/09/11 11:47:43;;;;;;;;;;;;;;;16.56;90.55;100826.75;4993520;28;1175;-85
2022/09/11 11:50:19;;;;;;;;;;;;;;;16.61;88.96;100824.69;4993432;28;1311;-87
2022/09/11 11:52:55;;;;;;;;;;;;;;;16.73;88.35;100818.63;4994728;28;1052;-87
2022/09/11 11:55:25;;;;;;;;;;;;;;;16.80;88.38;100820.94;4994580;28;898;-87
2022/09/11 11:57:53;;;;;;;;;;;;;;;16.83;88.64;100821.16;4993363;28;1165;-87
2022/09/11 12:00:19;;;;;;;;;;;;;;;16.85;89.95;100813.34;4994596;28;1198;-87
2022/09/11 12:02:48;;;;;;;;;;;;;;;16.96;88.42;100820.25;4994473;28;989;-87
2022/09/11 12:05:19;;;;;;;;;;;;;;;17.02;88.03;100818.16;4994590;28;1959;-88
2022/09/11 12:07:46;;;;;;;;;;;;;;;17.16;86.82;100818.91;4994773;28;1025;-87
2022/09/11 12:10:20;;;;;;;;;;;;;;;17.32;86.67;100822.09;4994646;28;1281;-87
2022/09/11 12:12:47;;;;;;;;;;;;;;;17.37;85.86;100808.94;4993396;28;1251;-87
2022/09/11 12:15:23;;;;;;;;;;;;;;;17.43;88.00;100811.56;4993656;28;1385;-86
2022/09/11 12:18:02;;;;;;;;;;;;;;;17.38;86.50;100809.75;4994586;28;799;-87
2022/09/11 12:20:28;;;;;;;;;;;;;;;17.45;86.44;100818.41;4994231;28;1224;-89
2022/09/11 12:22:53;;;;;;;;;;;;;;;17.38;84.71;100820.81;4994303;28;963;-87
2022/09/11 12:25:18;;;;;;;;;;;;;;;17.30;82.99;100816.06;4994412;28;1955;-88
2022/09/11 12:27:43;;;;;;;;;;;;;;;17.42;84.79;100809.94;5010363;28;927;-87
2022/09/11 12:30:09;;;;;;;;;;;;;;;17.61;83.41;100810.47;5009405;28;1232;-87
2022/09/11 12:32:41;;;;;;;;;;;;;;;17.69;83.72;100810.53;5009200;28;1333;-88
2022/09/11 12:35:14;;;;;;;;;;;;;;;17.86;85.08;100809.00;4992993;28;1211;-87
2022/09/11 12:37:40;;;;;;;;;;;;;;;18.01;85.87;100805.75;5008978;28;1288;-87
2022/09/11 12:40:15;;;;;;;;;;;;;;;17.98;86.28;100801.69;4993068;28;1320;-87
2022/09/11 12:42:40;;;;;;;;;;;;;;;18.07;84.77;100801.69;4993087;28;1317;-87
2022/09/11 12:45:25;;;;;;;;;;;;;;;18.12;84.73;100807.06;4993985;28;1898;-87
2022/09/11 12:47:51;;;;;;;;;;;;;;;18.05;86.06;100806.72;4993915;28;1062;-86